Time;durP1;ratioP1;P1;durP2;ratioP2;P2;SDS_P1;SDS_P2;PMS_P1;PMS_P2;Temp;Humidity;BMP_temperature;BMP_pressure;BME280_temperature;BME280_humidity;BME280_pressure;Samples;Min_cycle;Max_cycle;Signal;HPM_P1;HPM_P2
2022/12/01 00:01:36;;;;;;;13.30;6.18;;;;;;;2.75;84.30;101617.81;4970830;28;20071;-93
2022/12/01 00:04:18;;;;;;;12.80;5.68;;;;;;;2.83;84.78;101648.38;4969252;28;20051;-93
2022/12/01 00:07:09;;;;;;;8.82;5.22;;;;;;;2.67;84.65;101627.13;4978567;28;20123;-91
2022/12/01 00:12:32;;;;;;;10.68;5.85;;;;;;;2.56;84.38;101614.47;4957668;28;20114;-93
2022/12/01 00:15:05;;;;;;;13.60;7.10;;;;;;;2.70;84.19;101640.25;4943026;28;20530;-93
2022/12/01 00:17:34;;;;;;;23.40;10.88;;;;;;;2.59;84.20;101624.91;4963343;28;20042;-93
2022/12/01 00:20:09;;;;;;;11.75;6.53;;;;;;;2.61;84.07;101607.13;4926876;28;20043;-93
2022/12/01 00:22:45;;;;;;;10.57;5.30;;;;;;;2.71;84.22;101645.47;4951192;28;20043;-95
2022/12/01 00:25:13;;;;;;;12.90;6.38;;;;;;;2.56;83.99;101626.91;4953017;28;20134;-94
2022/12/01 00:27:51;;;;;;;12.35;6.45;;;;;;;2.84;84.06;101674.88;4951485;28;20040;-93
2022/12/01 00:30:42;;;;;;;9.68;5.93;;;;;;;2.85;83.81;101679.22;4950586;28;20432;-96
2022/12/01 00:33:14;;;;;;;11.50;5.93;;;;;;;2.82;83.62;101679.41;4955328;28;20090;-96
2022/12/01 00:36:02;;;;;;;10.93;5.60;;;;;;;2.59;83.25;101638.19;4946478;28;20229;-93
2022/12/01 00:38:32;;;;;;;12.05;6.10;;;;;;;2.80;83.11;101661.84;4965407;28;20054;-96
2022/12/01 00:40:58;;;;;;;12.75;6.00;;;;;;;2.60;83.08;101631.97;4921446;29;20043;-94
2022/12/01 00:43:26;;;;;;;12.68;6.35;;;;;;;2.55;83.19;101628.69;4919293;29;20043;-94
2022/12/01 00:46:10;;;;;;;12.10;5.97;;;;;;;2.80;83.01;101668.00;4950903;28;20110;-93
2022/12/01 00:48:39;;;;;;;10.90;5.55;;;;;;;2.53;83.22;101642.06;4930153;28;20042;-94
2022/12/01 00:51:10;;;;;;;10.60;6.30;;;;;;;2.41;83.67;101615.31;4947777;28;20153;-94
2022/12/01 00:53:42;;;;;;;9.10;5.22;;;;;;;2.61;83.68;101665.53;4955148;28;20039;-92
2022/12/01 00:59:56;;;;;;;9.77;5.82;;;;;;;2.66;83.85;101652.84;4972917;28;20075;-92
2022/12/01 01:02:27;;;;;;;11.52;6.10;;;;;;;2.36;83.79;101607.63;4975227;28;20150;-91
2022/12/01 01:04:55;;;;;;;10.35;5.43;;;;;;;2.57;83.93;101631.25;4976090;28;20067;-91
2022/12/01 01:07:36;;;;;;;11.52;6.35;;;;;;;2.56;83.57;101635.72;4972486;28;20118;-96
2022/12/01 01:10:30;;;;;;;12.02;5.95;;;;;;;2.66;83.42;101636.91;4965397;28;20057;-92
2022/12/01 01:13:11;;;;;;;9.85;5.65;;;;;;;2.46;83.47;101597.38;4948149;28;20058;-96
2022/12/01 01:16:04;;;;;;;11.70;5.15;;;;;;;2.40;83.59;101592.38;4952702;29;20051;-96
2022/12/01 01:18:54;;;;;;;9.88;5.70;;;;;;;2.37;83.70;101590.78;4965166;29;20050;-94
2022/12/01 01:21:24;;;;;;;8.73;5.38;;;;;;;2.32;83.46;101585.72;4962773;29;20058;-95
2022/12/01 01:23:55;;;;;;;10.55;5.68;;;;;;;2.34;83.33;101601.53;4949506;29;20163;-93
2022/12/01 01:26:45;;;;;;;10.40;5.35;;;;;;;2.37;83.33;101592.56;4970111;29;20047;-95
2022/12/01 01:29:11;;;;;;;10.77;5.65;;;;;;;2.19;83.41;101552.84;4975678;28;20089;-95
2022/12/01 01:31:39;;;;;;;9.75;5.50;;;;;;;2.41;83.35;101588.78;4947142;28;20058;-95
2022/12/01 01:34:15;;;;;;;10.75;5.07;;;;;;;2.36;83.43;101582.88;4957180;29;20058;-94
2022/12/01 01:36:47;;;;;;;8.68;5.70;;;;;;;2.30;83.76;101589.41;4955805;29;20055;-92
2022/12/01 01:39:15;;;;;;;9.45;5.32;;;;;;;2.14;83.65;101573.47;4974297;28;20074;-94
2022/12/01 01:42:25;;;;;;;9.50;5.30;;;;;;;2.29;84.36;101593.84;4960112;29;20051;-95
2022/12/01 01:44:57;;;;;;;8.82;4.68;;;;;;;2.16;84.71;101581.34;4959318;29;20047;-95
2022/12/01 01:47:39;;;;;;;9.43;5.38;;;;;;;2.27;84.66;101603.69;4968070;29;20047;-95
2022/12/01 01:50:14;;;;;;;10.30;5.47;;;;;;;1.98;85.31;101575.25;4973083;28;20051;-93
2022/12/01 01:52:45;;;;;;;9.07;4.90;;;;;;;1.92;84.40;101563.19;4957761;28;20050;-95
2022/12/01 01:55:11;;;;;;;10.20;5.00;;;;;;;2.24;84.29;101619.75;4952415;29;20031;-93
2022/12/01 01:57:46;;;;;;;7.00;4.43;;;;;;;2.06;84.63;101594.22;4955492;28;20065;-94
2022/12/01 02:00:22;;;;;;;8.93;4.70;;;;;;;1.88;85.38;101586.34;4960714;28;20348;-94
2022/12/01 02:02:59;;;;;;;7.85;4.78;;;;;;;1.76;85.79;101564.94;4998241;28;20042;-95
2022/12/01 02:05:33;;;;;;;6.13;3.75;;;;;;;1.95;84.82;101584.22;4985365;28;20100;-93
2022/12/01 02:08:16;;;;;;;5.95;3.60;;;;;;;1.98;84.80;101585.84;4966330;28;20105;-96
2022/12/01 02:11:47;;;;;;;6.13;3.15;;;;;;;2.14;84.76;101602.66;4973917;28;20035;-92
2022/12/01 02:14:59;;;;;;;5.95;3.35;;;;;;;2.09;84.86;101594.09;4901462;29;20219;-93
2022/12/01 02:17:37;;;;;;;6.47;3.88;;;;;;;2.06;84.98;101600.41;4946795;28;20050;-92
2022/12/01 02:20:37;;;;;;;7.20;3.88;;;;;;;2.15;84.63;101604.34;4981151;28;20062;-91
2022/12/01 02:23:24;;;;;;;8.82;4.30;;;;;;;2.09;84.83;101604.69;4993522;28;20065;-94
2022/12/01 02:26:09;;;;;;;7.78;3.88;;;;;;;1.87;85.31;101567.84;4976876;28;20494;-93
2022/12/01 02:28:49;;;;;;;7.45;4.30;;;;;;;2.10;85.45;101612.56;4993035;28;20117;-96
2022/12/01 02:31:44;;;;;;;6.63;3.60;;;;;;;1.76;85.83;101557.00;4979673;28;20507;-96
2022/12/01 02:34:43;;;;;;;10.25;4.10;;;;;;;1.83;85.70;101572.47;4962783;28;20022;-95
2022/12/01 02:37:56;;;;;;;5.65;3.58;;;;;;;2.04;85.75;101597.00;4996767;28;20038;-94
2022/12/01 02:41:34;;;;;;;6.35;3.22;;;;;;;1.82;85.73;101548.69;4982239;28;20111;-95
2022/12/01 02:44:24;;;;;;;5.65;3.17;;;;;;;1.91;85.50;101548.19;4996590;28;20073;-96
2022/12/01 02:47:16;;;;;;;4.55;2.58;;;;;;;1.75;85.20;101531.41;4978190;28;20053;-95
2022/12/01 02:49:52;;;;;;;;;;;;;;;1.88;85.55;101570.44;4995971;28;20104;-95
2022/12/01 02:52:19;;;;;;;6.68;3.13;;;;;;;1.69;85.56;101538.75;4987685;28;19906;-91
2022/12/01 02:54:49;;;;;;;;;;;;;;;1.82;85.95;101578.69;4977000;28;20086;-95
2022/12/01 02:57:20;;;;;;;5.53;3.03;;;;;;;1.56;86.19;101555.38;5000291;28;19958;-93
2022/12/01 02:59:52;;;;;;;5.72;3.22;;;;;;;1.62;85.74;101547.13;4997802;28;20065;-94
2022/12/01 03:02:26;;;;;;;4.63;2.58;;;;;;;1.62;85.32;101537.38;4983432;28;20118;-95
2022/12/01 03:05:47;;;;;;;4.85;3.00;;;;;;;1.67;85.45;101539.78;5013383;28;20046;-93
2022/12/01 03:08:53;;;;;;;6.50;3.20;;;;;;;1.92;84.99;101573.78;4989486;28;20052;-96
2022/12/01 03:11:28;;;;;;;4.85;3.05;;;;;;;1.47;85.68;101501.06;4995874;28;20042;-92
2022/12/01 03:14:12;;;;;;;5.10;2.83;;;;;;;1.77;85.63;101561.34;4981053;28;20085;-93
2022/12/01 03:16:51;;;;;;;4.85;2.80;;;;;;;1.60;85.68;101539.25;4998357;28;20042;-92
2022/12/01 03:19:35;;;;;;;5.22;2.67;;;;;;;1.49;85.48;101496.53;4993683;28;20051;-91
2022/12/01 03:22:16;;;;;;;5.85;2.75;;;;;;;1.88;84.92;101553.66;4960901;28;20038;-92
2022/12/01 03:24:44;;;;;;;5.22;3.22;;;;;;;1.65;85.04;101541.66;5000273;28;20037;-93
2022/12/01 03:27:12;;;;;;;5.80;2.90;;;;;;;1.80;85.08;101554.09;4973171;28;20034;-93
2022/12/01 03:29:44;;;;;;;5.13;2.85;;;;;;;1.65;85.13;101536.34;5014850;28;20054;-90
2022/12/01 03:32:27;;;;;;;5.15;3.10;;;;;;;1.82;85.21;101570.75;4970118;28;20034;-94
2022/12/01 03:35:23;;;;;;;4.43;2.70;;;;;;;1.87;84.67;101567.84;4972309;28;20054;-92
2022/12/01 03:38:15;;;;;;;4.55;2.70;;;;;;;1.69;85.03;101561.75;4974750;28;20031;-93
2022/12/01 03:40:44;;;;;;;4.65;2.47;;;;;;;1.57;85.36;101552.66;4952730;28;20108;-93
2022/12/01 03:43:20;;;;;;;4.32;2.58;;;;;;;1.63;85.52;101556.78;4949185;28;20422;-93
2022/12/01 03:45:54;;;;;;;4.40;2.53;;;;;;;1.40;85.66;101521.72;4976223;28;20038;-94
2022/12/01 03:48:21;;;;;;;5.32;2.58;;;;;;;1.72;85.20;101558.94;4972917;28;20029;-92
2022/12/01 03:51:05;;;;;;;4.47;2.70;;;;;;;2.00;85.09;101606.03;4977970;28;20042;-92
2022/12/01 03:53:57;;;;;;;4.35;2.45;;;;;;;1.99;84.51;101598.16;4988358;28;20026;-92
2022/12/01 03:56:25;;;;;;;4.53;2.30;;;;;;;1.95;84.36;101591.31;4993595;28;20038;-91
2022/12/01 03:58:52;;;;;;;4.75;2.60;;;;;;;1.68;84.58;101552.06;4960984;28;20576;-92
2022/12/01 04:01:21;;;;;;;4.75;2.65;;;;;;;1.74;84.93;101572.13;4971853;28;20089;-90
2022/12/01 04:03:47;;;;;;;3.90;2.60;;;;;;;2.10;84.38;101623.16;4971504;28;20035;-91
2022/12/01 04:06:13;;;;;;;4.38;2.42;;;;;;;1.62;83.88;101553.28;4965396;28;20104;-90
2022/12/01 04:08:40;;;;;;;4.43;2.70;;;;;;;2.06;84.40;101620.75;4962701;28;20051;-92
2022/12/01 04:13:54;;;;;;;4.47;2.60;;;;;;;1.96;83.45;101569.16;4996552;28;20053;-92
2022/12/01 04:16:21;;;;;;;4.10;2.47;;;;;;;2.08;83.95;101587.06;4960476;28;20530;-92
2022/12/01 04:19:12;;;;;;;5.70;2.17;;;;;;;2.07;83.29;101588.00;4963536;28;20498;-92
2022/12/01 04:21:39;;;;;;;4.93;2.70;;;;;;;1.90;83.50;101579.16;4990778;28;20046;-91
2022/12/01 04:24:06;;;;;;;;;;;;;;;2.14;84.15;101621.22;4979518;28;20049;-92
2022/12/01 04:26:36;;;;;;;4.57;2.40;;;;;;;2.13;84.07;101600.94;4991805;28;20318;-92
2022/12/01 04:29:06;;;;;;;4.53;2.30;;;;;;;2.02;83.86;101587.41;4974552;28;20550;-94
2022/12/01 04:31:34;;;;;;;3.25;1.95;;;;;;;2.13;83.91;101582.38;4975930;28;20093;-92
2022/12/01 04:34:01;;;;;;;3.38;1.98;;;;;;;2.06;83.07;101583.63;4976987;28;20069;-91
2022/12/01 04:36:30;;;;;;;4.18;2.08;;;;;;;2.04;83.06;101597.00;4946017;28;20110;-93
2022/12/01 04:38:58;;;;;;;4.38;2.42;;;;;;;2.13;83.53;101608.91;4994864;28;20066;-92
2022/12/01 04:41:27;;;;;;;4.32;2.30;;;;;;;2.27;83.26;101616.97;4974599;28;20113;-90
2022/12/01 04:43:54;;;;;;;3.97;2.05;;;;;;;2.24;82.71;101584.41;4977674;28;20057;-91
2022/12/01 04:46:21;;;;;;;4.80;2.10;;;;;;;2.04;82.62;101553.69;4971017;28;20048;-91
2022/12/01 04:48:47;;;;;;;3.20;1.80;;;;;;;2.33;83.14;101613.09;4965959;28;20050;-91
2022/12/01 04:51:12;;;;;;;3.25;2.00;;;;;;;2.25;82.96;101581.69;4972960;28;20089;-92
2022/12/01 04:53:39;;;;;;;3.90;2.10;;;;;;;2.01;83.10;101561.78;4936834;28;20041;-92
2022/12/01 04:56:06;;;;;;;3.50;1.95;;;;;;;2.03;82.79;101549.31;4955915;28;20050;-93
2022/12/01 04:58:33;;;;;;;3.22;1.98;;;;;;;2.21;82.92;101598.72;4957156;28;20073;-92
2022/12/01 05:01:14;;;;;;;3.88;2.03;;;;;;;1.96;82.93;101547.94;4959191;28;20065;-93
2022/12/01 05:03:42;;;;;;;4.15;2.13;;;;;;;1.87;83.35;101542.22;4987694;28;20105;-92
2022/12/01 05:06:13;;;;;;;3.60;2.10;;;;;;;1.97;83.55;101553.16;4955935;28;20129;-92
2022/12/01 05:08:40;;;;;;;4.95;2.10;;;;;;;1.92;83.34;101552.56;4972138;28;20042;-92
2022/12/01 05:11:06;;;;;;;;;;;;;;;2.18;83.23;101585.63;4956440;28;20067;-92
2022/12/01 05:13:34;;;;;;;4.13;2.15;;;;;;;1.99;82.96;101576.94;4973045;28;19933;-90
2022/12/01 05:16:28;;;;;;;3.45;2.08;;;;;;;2.06;83.33;101578.31;4962021;28;20189;-92
2022/12/01 05:21:43;;;;;;;3.65;2.05;;;;;;;2.12;83.80;101588.59;4977994;28;20042;-91
2022/12/01 05:24:09;;;;;;;3.50;1.75;;;;;;;2.15;83.56;101598.19;4973184;28;20074;-92
2022/12/01 05:26:35;;;;;;;3.33;2.13;;;;;;;1.87;84.40;101557.25;4993646;28;20038;-93
2022/12/01 05:29:03;;;;;;;6.78;1.90;;;;;;;2.01;84.58;101559.16;4968977;28;20074;-94
2022/12/01 05:32:03;;;;;;;8.13;2.28;;;;;;;1.97;84.72;101552.31;4968138;28;20046;-95
2022/12/01 05:34:30;;;;;;;3.35;1.83;;;;;;;1.87;84.60;101521.00;5000161;28;20054;-95
2022/12/01 05:36:56;;;;;;;3.65;2.08;;;;;;;1.98;84.88;101554.88;4985657;28;20073;-92
2022/12/01 05:39:39;;;;;;;5.03;2.22;;;;;;;2.09;85.05;101571.06;4988199;28;20069;-94
2022/12/01 05:42:18;;;;;;;3.33;2.00;;;;;;;2.04;84.30;101589.03;5005560;28;20053;-93
2022/12/01 05:44:50;;;;;;;4.50;2.20;;;;;;;1.88;84.58;101565.13;4978370;28;20078;-94
2022/12/01 05:47:21;;;;;;;3.17;1.73;;;;;;;1.78;83.90;101532.09;5002332;28;20628;-90
2022/12/01 05:49:59;;;;;;;3.83;2.17;;;;;;;1.85;84.61;101533.47;4988419;28;20109;-93
2022/12/01 05:52:25;;;;;;;4.03;2.40;;;;;;;2.02;84.75;101588.25;4960018;28;20038;-92
2022/12/01 05:55:28;;;;;;;3.40;1.90;;;;;;;2.18;84.76;101604.19;4995653;28;20042;-87
2022/12/01 05:57:58;;;;;;;3.00;1.83;;;;;;;2.19;84.16;101605.03;5002727;28;20512;-87
2022/12/01 06:00:30;;;;;;;3.90;2.00;;;;;;;1.98;85.06;101580.53;4957109;28;20116;-89
2022/12/01 06:03:27;;;;;;;5.32;2.75;;;;;;;2.19;85.44;101616.50;4971355;28;20053;-91
2022/12/01 06:06:33;;;;;;;5.72;2.58;;;;;;;2.24;85.45;101616.25;4972489;28;20083;-90
2022/12/01 06:09:00;;;;;;;5.30;2.40;;;;;;;2.00;86.92;101603.38;4966623;28;20043;-93
2022/12/01 06:11:50;;;;;;;3.08;1.80;;;;;;;2.21;85.39;101619.09;4973520;28;20055;-86
2022/12/01 06:14:17;;;;;;;4.53;2.20;;;;;;;2.22;85.49;101620.78;4967032;28;20067;-90
2022/12/01 06:16:44;;;;;;;4.60;1.88;;;;;;;1.93;84.92;101561.38;4979346;28;20239;-92
2022/12/01 06:19:12;;;;;;;2.78;1.38;;;;;;;1.97;85.25;101568.22;4972616;28;20141;-91
2022/12/01 06:21:38;;;;;;;4.93;1.98;;;;;;;2.10;85.00;101582.53;4975119;28;20476;-90
2022/12/01 06:24:07;;;;;;;3.45;1.95;;;;;;;1.91;85.04;101542.88;4976716;28;20121;-89
2022/12/01 06:26:33;;;;;;;4.13;2.33;;;;;;;1.92;85.22;101538.44;4985170;28;20034;-94
2022/12/01 06:29:20;;;;;;;4.07;2.00;;;;;;;1.93;84.58;101525.09;4893295;29;20054;-92
2022/12/01 06:32:04;;;;;;;4.50;2.22;;;;;;;2.24;84.82;101574.66;4918491;29;20047;-93
2022/12/01 06:34:50;;;;;;;3.88;2.15;;;;;;;2.21;85.52;101581.94;4868710;29;20137;-94
2022/12/01 06:37:21;;;;;;;5.07;2.35;;;;;;;2.11;85.62;101557.72;4908973;29;20068;-93
2022/12/01 06:39:46;;;;;;;4.43;2.08;;;;;;;2.03;85.42;101568.72;4869258;29;20056;-89
2022/12/01 06:42:15;;;;;;;5.00;1.90;;;;;;;1.93;85.00;101540.16;4887370;29;20140;-91
2022/12/01 06:44:41;;;;;;;4.95;2.22;;;;;;;2.14;85.03;101569.97;4917615;29;20052;-91
2022/12/01 06:47:07;;;;;;;4.22;2.20;;;;;;;2.16;86.16;101589.31;4901428;29;20043;-90
2022/12/01 06:49:43;;;;;;;4.90;2.38;;;;;;;1.89;85.41;101529.69;4933488;29;20161;-92
2022/12/01 06:52:12;;;;;;;4.65;2.42;;;;;;;1.99;85.60;101558.38;4937962;28;20062;-89
2022/12/01 06:54:40;;;;;;;4.40;2.20;;;;;;;2.03;85.42;101551.97;4953919;28;20043;-89
2022/12/01 06:57:05;;;;;;;2.80;1.63;;;;;;;1.99;84.33;101558.38;4918854;29;20575;-88
2022/12/01 06:59:32;;;;;;;13.20;2.28;;;;;;;2.24;84.51;101585.28;4899606;29;20173;-90
2022/12/01 07:01:57;;;;;;;4.57;2.53;;;;;;;2.39;87.79;101588.00;4938302;29;20122;-91
2022/12/01 07:04:24;;;;;;;3.35;2.10;;;;;;;2.29;85.57;101585.91;4910809;29;20572;-86
2022/12/01 07:06:49;;;;;;;4.05;2.30;;;;;;;2.43;85.06;101586.91;4962709;28;20043;-85
2022/12/01 07:09:17;;;;;;;5.03;2.70;;;;;;;2.32;84.95;101561.84;4968053;28;20539;-89
2022/12/01 07:11:43;;;;;;;6.25;2.38;;;;;;;2.47;83.80;101589.31;4972471;28;20030;-90
2022/12/01 07:14:17;;;;;;;4.57;2.42;;;;;;;2.48;84.16;101591.03;4991890;28;20046;-89
2022/12/01 07:17:05;;;;;;;6.97;2.65;;;;;;;2.60;84.42;101584.19;4975755;28;20042;-88
2022/12/01 07:19:33;;;;;;;5.90;2.88;;;;;;;2.33;84.54;101550.25;4972811;28;20167;-91
2022/12/01 07:21:59;;;;;;;4.90;2.60;;;;;;;2.38;84.19;101554.47;4971552;28;20417;-87
2022/12/01 07:24:25;;;;;;;5.72;2.67;;;;;;;2.55;84.26;101580.91;4973962;28;20094;-88
2022/12/01 07:26:50;;;;;;;5.32;3.00;;;;;;;2.59;85.29;101587.75;4975179;28;20035;-88
2022/12/01 07:29:22;;;;;;;5.68;2.80;;;;;;;2.56;85.04;101581.78;4972720;28;20045;-91
2022/12/01 07:31:48;;;;;;;5.25;3.13;;;;;;;2.54;85.03;101573.88;4974196;28;20038;-91
2022/12/01 07:34:15;;;;;;;5.80;2.60;;;;;;;2.66;84.79;101594.44;4970086;28;20438;-90
2022/12/01 07:36:43;;;;;;;5.68;2.58;;;;;;;2.42;83.61;101548.03;4957022;28;20463;-90
2022/12/01 07:39:09;;;;;;;5.68;2.63;;;;;;;2.52;85.17;101584.59;4966787;28;20035;-90
2022/12/01 07:41:34;;;;;;;4.88;2.50;;;;;;;2.41;85.66;101564.91;4971424;28;20103;-86
2022/12/01 07:44:03;;;;;;;5.15;2.60;;;;;;;2.36;84.46;101535.13;4989564;28;20227;-88
2022/12/01 07:46:29;;;;;;;8.05;3.10;;;;;;;2.25;84.41;101519.81;4973718;28;20142;-90
2022/12/01 07:48:56;;;;;;;5.35;2.55;;;;;;;2.55;84.98;101564.97;4969845;28;20051;-87
2022/12/01 07:51:57;;;;;;;5.93;3.00;;;;;;;2.74;84.50;101568.31;4956700;28;20495;-89
2022/12/01 07:57:52;;;;;;;5.60;2.95;;;;;;;2.71;84.68;101554.34;4965272;28;20070;-89
2022/12/01 08:00:21;;;;;;;4.40;2.70;;;;;;;2.69;84.48;101545.59;4962695;28;20116;-90
2022/12/01 08:02:51;;;;;;;4.63;2.58;;;;;;;2.54;84.82;101536.72;4968663;28;20119;-91
2022/12/01 08:05:32;;;;;;;5.53;2.55;;;;;;;2.56;84.89;101550.78;4991758;28;20105;-91
2022/12/01 08:07:58;;;;;;;5.93;2.83;;;;;;;2.48;84.48;101537.06;4973238;28;20388;-86
2022/12/01 08:10:24;;;;;;;6.90;3.17;;;;;;;2.51;84.97;101548.38;4974895;28;20074;-87
2022/12/01 08:12:50;;;;;;;5.97;3.08;;;;;;;2.53;84.95;101553.59;4954748;29;20087;-87
2022/12/01 08:15:15;;;;;;;6.65;3.55;;;;;;;2.65;85.19;101576.78;4949499;28;20404;-87
2022/12/01 08:17:42;;;;;;;9.10;3.80;;;;;;;2.73;85.20;101563.06;4976410;28;20623;-87
2022/12/01 08:20:23;;;;;;;5.90;2.67;;;;;;;2.44;84.01;101514.31;4945097;28;20047;-89
2022/12/01 08:22:50;;;;;;;4.57;2.40;;;;;;;2.66;83.93;101549.28;4978501;28;20050;-86
2022/12/01 08:25:16;;;;;;;5.90;3.20;;;;;;;2.71;84.68;101533.09;4976152;28;20043;-86
2022/12/01 08:27:42;;;;;;;8.43;3.60;;;;;;;2.83;84.80;101537.69;4986130;28;20066;-88
2022/12/01 08:30:08;;;;;;;6.78;3.03;;;;;;;3.15;83.78;101575.66;4951812;28;20491;-88
2022/12/01 08:32:44;;;;;;;7.57;3.40;;;;;;;3.21;84.63;101569.13;4982592;28;20046;-89
2022/12/01 08:35:19;;;;;;;6.22;3.33;;;;;;;3.27;83.19;101567.91;4979143;28;20050;-90
2022/12/01 08:37:51;;;;;;;6.80;3.70;;;;;;;3.39;83.68;101561.84;4979425;28;21218;-86
2022/12/01 08:40:16;;;;;;;7.55;3.17;;;;;;;3.27;82.38;101541.31;4966310;28;20042;-88
2022/12/01 08:42:43;;;;;;;5.28;3.40;;;;;;;3.22;83.29;101533.63;4987424;28;20085;-89
2022/12/01 08:45:10;;;;;;;7.22;3.85;;;;;;;3.24;83.40;101525.56;4983701;28;20107;-86
2022/12/01 08:47:58;;;;;;;8.00;3.53;;;;;;;3.45;82.23;101553.50;4978738;28;20034;-86
2022/12/01 08:50:26;;;;;;;8.27;4.13;;;;;;;3.38;83.72;101544.19;4989654;28;20054;-90
2022/12/01 08:52:53;;;;;;;5.00;2.97;;;;;;;3.48;82.17;101555.13;4986589;28;20392;-91
2022/12/01 08:55:20;;;;;;;5.57;3.20;;;;;;;3.48;81.57;101540.00;4967282;28;20102;-91
2022/12/01 08:57:46;;;;;;;7.53;3.50;;;;;;;3.51;81.64;101534.53;4978536;28;20046;-94
2022/12/01 09:00:34;;;;;;;5.97;3.42;;;;;;;3.86;80.79;101560.72;4981619;28;20046;-92
2022/12/01 09:03:02;;;;;;;9.60;4.38;;;;;;;3.62;82.17;101535.66;4977689;28;20106;-91
2022/12/01 09:05:30;;;;;;;6.40;3.80;;;;;;;3.82;80.56;101532.63;4980962;28;20110;-91
2022/12/01 09:10:46;;;;;;;7.07;3.15;;;;;;;3.98;80.05;101529.84;4968361;28;20074;-87
2022/12/01 09:13:15;;;;;;;8.38;3.45;;;;;;;4.06;80.05;101555.97;4957201;28;20130;-89
2022/12/01 09:15:41;;;;;;;5.32;3.03;;;;;;;3.78;80.71;101499.19;4976335;28;20050;-90
2022/12/01 09:18:23;;;;;;;5.30;2.70;;;;;;;3.95;79.57;101512.25;4974816;28;20028;-87
2022/12/01 09:20:49;;;;;;;5.55;2.85;;;;;;;4.14;79.58;101556.34;4978626;28;20054;-90
2022/12/01 09:23:40;;;;;;;7.07;3.25;;;;;;;3.98;81.44;101541.34;4978567;28;20039;-92
2022/12/01 09:26:06;;;;;;;8.57;3.10;;;;;;;3.92;80.69;101557.69;4976219;28;20042;-89
2022/12/01 09:28:34;;;;;;;5.78;3.42;;;;;;;3.95;80.91;101552.16;4976430;28;20448;-88
2022/12/01 09:31:09;;;;;;;5.68;3.60;;;;;;;4.10;81.03;101541.53;4973559;28;20073;-88
2022/12/01 09:33:37;;;;;;;6.43;4.15;;;;;;;3.77;81.11;101519.63;4975611;28;20051;-88
2022/12/01 09:36:03;;;;;;;5.43;3.53;;;;;;;4.05;80.50;101546.28;4967049;28;20042;-90
2022/12/01 09:38:29;;;;;;;6.97;3.65;;;;;;;4.12;80.32;101536.94;4966761;28;20046;-93
2022/12/01 09:40:56;;;;;;;5.68;3.60;;;;;;;3.97;80.01;101517.50;4980920;28;20039;-88
2022/12/01 09:43:25;;;;;;;7.30;3.92;;;;;;;3.99;80.91;101537.72;4961360;28;20435;-89
2022/12/01 09:45:53;;;;;;;6.25;3.70;;;;;;;3.96;80.66;101521.13;4993857;28;20419;-88
2022/12/01 09:48:53;;;;;;;6.95;3.80;;;;;;;3.88;81.10;101512.75;4976464;28;20416;-88
2022/12/01 09:51:22;;;;;;;9.13;4.45;;;;;;;3.81;81.08;101485.69;4979433;28;20074;-88
2022/12/01 09:53:50;;;;;;;8.70;3.95;;;;;;;3.92;80.95;101507.13;4957233;28;20046;-89
2022/12/01 09:56:27;;;;;;;7.18;3.78;;;;;;;3.69;81.47;101478.47;4973744;28;20042;-89
2022/12/01 09:58:59;;;;;;;9.07;4.63;;;;;;;3.82;81.35;101490.06;4942963;28;20125;-88
2022/12/01 10:01:44;;;;;;;9.32;4.60;;;;;;;3.89;81.56;101501.19;4976745;28;20054;-89
2022/12/01 10:04:25;;;;;;;16.55;9.48;;;;;;;3.93;81.48;101482.25;4960452;28;20066;-90
2022/12/01 10:06:56;;;;;;;9.35;5.25;;;;;;;4.00;81.23;101482.69;4978934;28;20034;-90
2022/12/01 10:09:46;;;;;;;7.03;4.00;;;;;;;3.83;80.87;101494.41;4977545;28;20136;-90
2022/12/01 10:12:21;;;;;;;7.57;3.42;;;;;;;4.01;80.57;101500.38;4959832;28;20419;-89
2022/12/01 10:14:47;;;;;;;11.20;5.80;;;;;;;3.77;81.34;101477.06;4960135;28;20054;-88
2022/12/01 10:17:14;;;;;;;11.80;5.18;;;;;;;3.86;81.40;101502.19;4945275;28;20081;-88
2022/12/01 10:19:49;;;;;;;7.68;4.55;;;;;;;3.72;81.42;101463.19;4994894;28;20070;-87
2022/12/01 10:22:52;;;;;;;8.75;4.55;;;;;;;3.91;81.60;101489.47;4997375;28;20125;-89
2022/12/01 10:25:24;;;;;;;8.02;4.63;;;;;;;3.79;81.42;101474.28;4995154;28;20076;-89
2022/12/01 10:27:53;;;;;;;10.60;5.45;;;;;;;3.79;81.46;101487.56;4957247;28;20099;-89
2022/12/01 10:30:26;;;;;;;11.20;5.70;;;;;;;3.61;81.66;101471.00;4983812;28;20042;-91
2022/12/01 10:32:57;;;;;;;11.68;5.60;;;;;;;3.66;82.43;101474.22;4981476;28;20057;-89
2022/12/01 10:35:34;;;;;;;13.05;6.15;;;;;;;3.61;82.76;101459.50;4977341;28;20503;-88
2022/12/01 10:38:06;;;;;;;11.90;5.82;;;;;;;3.43;82.54;101426.94;4936054;28;20134;-89
2022/12/01 10:40:34;;;;;;;15.32;5.85;;;;;;;3.38;82.59;101433.41;4964170;28;20133;-88
2022/12/01 10:47:09;;;;;;;11.15;5.38;;;;;;;3.32;82.98;101416.97;5017513;28;20040;-90
2022/12/01 10:52:35;;;;;;;12.00;5.03;;;;;;;3.37;85.12;101441.44;5163540;22;20058;-89
2022/12/01 10:58:45;;;;;;;9.45;5.07;;;;;;;3.38;85.63;101449.34;4995654;28;20112;-88
2022/12/01 11:01:18;;;;;;;8.82;4.45;;;;;;;3.07;85.79;101409.69;4976679;28;20049;-89
2022/12/01 11:03:51;;;;;;;10.82;5.25;;;;;;;3.23;86.53;101465.38;4961132;28;20585;-88
2022/12/01 11:06:21;;;;;;;9.85;4.47;;;;;;;3.19;85.82;101453.25;4961068;28;20121;-87
2022/12/01 11:09:10;;;;;;;9.43;4.70;;;;;;;3.24;86.50;101473.25;4993011;28;20418;-89
2022/12/01 11:11:38;;;;;;;6.05;3.67;;;;;;;3.06;85.93;101437.19;4961479;28;20459;-87
2022/12/01 11:14:18;;;;;;;9.48;4.03;;;;;;;3.40;85.51;101470.53;4955512;28;20137;-91
2022/12/01 11:16:47;;;;;;;7.55;4.05;;;;;;;3.40;86.08;101457.22;4976552;28;20042;-87
2022/12/01 11:19:23;;;;;;;6.38;3.33;;;;;;;3.28;85.52;101448.22;4978692;28;20054;-89
2022/12/01 11:21:52;;;;;;;9.85;3.70;;;;;;;3.13;85.26;101406.63;4980473;28;20027;-87
2022/12/01 11:24:29;;;;;;;9.45;3.63;;;;;;;3.38;86.09;101454.66;4975031;28;20035;-87
2022/12/01 11:26:56;;;;;;;8.25;4.30;;;;;;;3.42;86.71;101439.38;4995303;28;20044;-88
2022/12/01 11:29:30;;;;;;;7.72;3.53;;;;;;;3.56;85.46;101457.13;4946837;28;20039;-90
2022/12/01 11:31:57;;;;;;;7.10;3.85;;;;;;;3.52;85.39;101443.16;4976745;28;20063;-86
2022/12/01 11:34:45;;;;;;;11.23;4.53;;;;;;;3.73;85.17;101466.72;4989405;28;20528;-88
2022/12/01 11:37:15;;;;;;;6.78;3.30;;;;;;;3.67;83.79;101469.75;4991418;28;20042;-87
2022/12/01 11:39:42;;;;;;;5.85;3.03;;;;;;;3.76;84.03;101482.47;4975897;28;20077;-86
2022/12/01 11:42:11;;;;;;;6.90;3.10;;;;;;;3.83;84.13;101485.59;4978853;28;20030;-86
2022/12/01 11:44:38;;;;;;;8.93;3.95;;;;;;;3.56;84.37;101443.84;4993988;28;20078;-86
2022/12/01 11:47:32;;;;;;;5.60;3.28;;;;;;;3.67;84.55;101462.59;4991797;28;20038;-87
2022/12/01 11:50:00;;;;;;;5.72;3.17;;;;;;;3.88;84.26;101467.53;4971074;28;20070;-89
2022/12/01 11:52:45;;;;;;;6.70;3.30;;;;;;;3.76;84.21;101455.88;4961896;28;20051;-91
2022/12/01 11:55:15;;;;;;;7.15;3.58;;;;;;;3.90;83.96;101477.13;4961884;28;20049;-87
2022/12/01 11:57:47;;;;;;;9.70;4.30;;;;;;;3.76;84.79;101439.91;4992546;28;20042;-86
2022/12/01 12:00:23;;;;;;;8.93;4.63;;;;;;;3.95;84.38;101453.72;4958031;28;20122;-86
2022/12/01 12:02:59;;;;;;;;;;;;;;;4.15;83.84;101480.88;4943287;28;20616;-85
2022/12/01 12:05:30;;;;;;;;;;;;;;;4.04;82.87;101478.03;4972612;28;20345;-87
2022/12/01 12:08:12;;;;;;;5.70;3.42;;;;;;;3.99;82.61;101486.31;4978976;28;20394;-84
2022/12/01 12:11:11;;;;;;;8.57;4.05;;;;;;;3.81;83.41;101461.75;4981354;28;20493;-84
2022/12/01 12:13:44;;;;;;;6.18;3.90;;;;;;;3.85;83.87;101457.94;4978954;28;20434;-85
2022/12/01 12:16:14;;;;;;;7.75;4.32;;;;;;;3.92;83.74;101458.41;4983864;28;20031;-84
2022/12/01 12:19:00;;;;;;;9.85;4.57;;;;;;;4.11;82.06;101484.69;4979585;28;20027;-83
2022/12/01 12:21:33;;;;;;;;;;;;;;;4.24;81.59;101501.56;4975338;28;20042;-83
2022/12/01 12:24:32;;;;;;;8.45;4.00;;;;;;;4.13;82.53;101510.25;4981330;28;19937;-83
2022/12/01 12:27:35;;;;;;;7.47;3.80;;;;;;;4.07;83.11;101505.31;4992163;28;20038;-83
2022/12/01 12:30:14;;;;;;;8.38;4.40;;;;;;;4.12;83.54;101497.03;4967817;28;20467;-84
2022/12/01 12:33:06;;;;;;;6.40;3.50;;;;;;;3.98;82.20;101480.16;5011932;28;20037;-84
2022/12/01 12:35:53;;;;;;;6.80;3.50;;;;;;;4.28;82.56;101497.75;4984790;28;20154;-83
2022/12/01 12:38:26;;;;;;;8.82;4.55;;;;;;;4.31;82.85;101486.91;5003750;28;20062;-83
2022/12/01 12:41:01;;;;;;;7.55;4.40;;;;;;;3.98;82.78;101428.72;4979582;28;20074;-83